Time;durP1;ratioP1;P1;durP2;ratioP2;P2;SDS_P1;SDS_P2;PMS_P1;PMS_P2;Temp;Humidity;BMP_temperature;BMP_pressure;BME280_temperature;BME280_humidity;BME280_pressure;Samples;Min_cycle;Max_cycle;Signal;HPM_P1;HPM_P2
2023/07/01 00:00:30;;;;;;;10.18;4.15;;;;;;;14.27;100.00;100326.47;5033459;28;20053;-62
2023/07/01 00:02:57;;;;;;;6.55;3.97;;;;;;;14.34;100.00;100325.69;5033954;28;20045;-63
2023/07/01 00:05:23;;;;;;;8.85;4.65;;;;;;;14.21;100.00;100319.13;5033345;28;20901;-63
2023/07/01 00:07:50;;;;;;;7.30;3.97;;;;;;;14.23;100.00;100318.97;5032100;28;20045;-64
2023/07/01 00:10:16;;;;;;;7.07;4.40;;;;;;;14.19;100.00;100315.81;5037397;28;20053;-62
2023/07/01 00:12:44;;;;;;;8.55;4.53;;;;;;;14.21;100.00;100319.13;5033481;28;20049;-63
2023/07/01 00:15:11;;;;;;;6.47;4.53;;;;;;;14.22;100.00;100323.53;5033298;28;20115;-62
2023/07/01 00:17:37;;;;;;;7.30;4.35;;;;;;;14.17;100.00;100322.44;5033308;28;20092;-62
2023/07/01 00:20:04;;;;;;;6.40;4.78;;;;;;;14.20;100.00;100320.16;5033071;28;20077;-62
2023/07/01 00:22:31;;;;;;;11.52;4.80;;;;;;;14.25;100.00;100312.34;5033167;28;20490;-63
2023/07/01 00:24:57;;;;;;;7.20;4.38;;;;;;;14.20;100.00;100314.78;5032983;28;20413;-65
2023/07/01 00:27:24;;;;;;;8.43;5.32;;;;;;;14.19;100.00;100310.41;5033276;28;20049;-63
2023/07/01 00:29:50;;;;;;;10.13;4.93;;;;;;;14.21;100.00;100316.44;5032890;28;20069;-63
2023/07/01 00:32:17;;;;;;;9.23;5.10;;;;;;;14.19;100.00;100317.69;5032740;28;20053;-62
2023/07/01 00:34:44;;;;;;;11.32;5.07;;;;;;;14.19;100.00;100306.91;5033039;28;20065;-63
2023/07/01 00:37:11;;;;;;;9.40;5.15;;;;;;;14.18;100.00;100311.44;5032775;28;20095;-63
2023/07/01 00:39:37;;;;;;;9.55;4.47;;;;;;;14.19;100.00;100313.13;5032936;28;20037;-63
2023/07/01 00:42:04;;;;;;;10.82;5.30;;;;;;;14.24;100.00;100307.13;5033176;28;20041;-63
2023/07/01 00:44:31;;;;;;;10.50;5.18;;;;;;;14.20;100.00;100308.56;5032692;28;20103;-63
2023/07/01 00:46:57;;;;;;;8.68;4.90;;;;;;;14.20;100.00;100303.97;5033019;28;20050;-62
2023/07/01 00:49:24;;;;;;;7.07;5.38;;;;;;;14.23;100.00;100306.31;5032869;28;20049;-62
2023/07/01 00:51:50;;;;;;;10.63;5.45;;;;;;;14.23;100.00;100298.19;5032774;28;20053;-62
2023/07/01 00:54:17;;;;;;;11.52;5.97;;;;;;;14.23;100.00;100297.38;5032657;28;20069;-62
2023/07/01 00:56:44;;;;;;;9.95;5.68;;;;;;;14.16;100.00;100291.91;5032691;28;20053;-63
2023/07/01 00:59:10;;;;;;;15.93;6.10;;;;;;;14.17;100.00;100288.19;5032218;28;20068;-63
2023/07/01 01:01:42;;;;;;;8.73;5.13;;;;;;;14.12;100.00;100290.66;5031076;28;20448;-63
2023/07/01 01:04:17;;;;;;;9.30;5.70;;;;;;;14.14;100.00;100285.88;5032864;28;20501;-63
2023/07/01 01:07:21;;;;;;;11.40;6.28;;;;;;;14.13;100.00;100286.91;5032321;28;20045;-63
2023/07/01 01:09:53;;;;;;;9.15;5.78;;;;;;;14.08;100.00;100283.13;5031935;28;20109;-62
2023/07/01 01:12:20;;;;;;;7.78;6.18;;;;;;;14.04;100.00;100278.09;5032736;28;20053;-62
2023/07/01 01:14:49;;;;;;;6.80;5.75;;;;;;;13.98;100.00;100281.59;5032303;28;20167;-63
2023/07/01 01:17:17;;;;;;;9.13;5.65;;;;;;;13.99;100.00;100268.94;5032254;28;20049;-63
2023/07/01 01:19:52;;;;;;;7.55;6.43;;;;;;;13.97;100.00;100265.59;5032324;28;20048;-63
2023/07/01 01:22:25;;;;;;;10.05;6.05;;;;;;;13.94;100.00;100263.28;5032267;28;20396;-64
2023/07/01 01:25:00;;;;;;;9.25;5.97;;;;;;;14.01;100.00;100266.88;5031944;28;20107;-62
2023/07/01 01:27:36;;;;;;;9.25;6.28;;;;;;;14.03;100.00;100257.56;5031138;28;20041;-62
2023/07/01 01:30:03;;;;;;;9.18;6.10;;;;;;;13.97;100.00;100260.19;5031453;28;20037;-62
2023/07/01 01:32:29;;;;;;;16.08;6.07;;;;;;;13.95;100.00;100263.09;5031881;28;20426;-62
2023/07/01 01:34:56;;;;;;;12.52;5.95;;;;;;;13.88;100.00;100251.41;5030844;28;20045;-62
2023/07/01 01:37:33;;;;;;;6.85;6.10;;;;;;;13.91;100.00;100256.44;5031082;28;20076;-62
2023/07/01 01:40:09;;;;;;;8.05;6.25;;;;;;;13.89;100.00;100252.25;5031474;28;20047;-63
2023/07/01 01:42:39;;;;;;;9.48;6.60;;;;;;;13.81;100.00;100250.53;5031813;28;20140;-63
2023/07/01 01:45:07;;;;;;;9.70;6.72;;;;;;;13.78;100.00;100249.03;5031620;28;20106;-62
2023/07/01 01:47:35;;;;;;;8.70;6.43;;;;;;;13.80;100.00;100238.06;5031263;28;20076;-63
2023/07/01 01:50:07;;;;;;;9.13;6.25;;;;;;;13.88;100.00;100239.81;5031379;28;20490;-63
2023/07/01 01:52:34;;;;;;;7.93;6.82;;;;;;;13.91;100.00;100239.41;5031394;28;20083;-63
2023/07/01 01:55:04;;;;;;;9.55;5.88;;;;;;;13.91;100.00;100239.41;5031320;28;20107;-63
2023/07/01 01:57:31;;;;;;;12.43;6.47;;;;;;;13.81;100.00;100237.06;5030899;28;20494;-63
2023/07/01 01:59:57;;;;;;;11.75;6.45;;;;;;;13.85;100.00;100229.41;5031684;28;20046;-63
2023/07/01 02:02:24;;;;;;;7.50;6.22;;;;;;;13.95;100.00;100224.53;5031291;28;20452;-63
2023/07/01 02:04:50;;;;;;;10.90;6.18;;;;;;;13.91;100.00;100234.00;5030947;28;20041;-63
2023/07/01 02:07:17;;;;;;;8.43;6.00;;;;;;;13.88;100.00;100231.72;5031480;28;20103;-62
2023/07/01 02:09:44;;;;;;;13.93;6.80;;;;;;;13.81;100.00;100234.34;5035165;28;20461;-63
2023/07/01 02:12:10;;;;;;;8.43;6.45;;;;;;;13.80;100.00;100229.97;5031266;28;20091;-62
2023/07/01 02:14:37;;;;;;;7.82;6.50;;;;;;;13.73;100.00;100224.47;5031397;28;20191;-63
2023/07/01 02:17:04;;;;;;;10.50;6.85;;;;;;;13.75;100.00;100214.34;5031277;28;20057;-64
2023/07/01 02:19:30;;;;;;;7.97;6.80;;;;;;;13.69;100.00;100225.91;5031099;28;20135;-63
2023/07/01 02:21:57;;;;;;;15.48;7.00;;;;;;;13.66;100.00;100218.19;5031334;28;20436;-63
2023/07/01 02:24:25;;;;;;;14.95;6.93;;;;;;;13.67;100.00;100222.56;5031235;28;20045;-63
2023/07/01 02:26:52;;;;;;;10.90;6.75;;;;;;;13.65;100.00;100219.22;5031045;28;20049;-62
2023/07/01 02:29:19;;;;;;;10.75;6.63;;;;;;;13.61;100.00;100223.34;5030802;28;20045;-62
2023/07/01 02:31:45;;;;;;;7.85;6.82;;;;;;;13.58;100.00;100221.84;5030593;28;20076;-63
2023/07/01 02:34:12;;;;;;;11.25;6.95;;;;;;;13.59;100.00;100225.38;5030840;28;20464;-63
2023/07/01 02:36:41;;;;;;;9.90;7.07;;;;;;;13.55;100.00;100227.63;5030673;28;20045;-62
2023/07/01 02:39:08;;;;;;;9.18;7.03;;;;;;;13.54;100.00;100215.19;5030797;28;20479;-62
2023/07/01 02:41:35;;;;;;;13.10;8.68;;;;;;;13.53;100.00;100210.00;5030809;28;20540;-62
2023/07/01 02:44:02;;;;;;;12.20;8.00;;;;;;;13.48;100.00;100207.88;5030859;28;20448;-62
2023/07/01 02:46:28;;;;;;;9.73;7.82;;;;;;;13.45;100.00;100196.63;5031275;28;20049;-63
2023/07/01 02:48:55;;;;;;;8.23;6.97;;;;;;;13.43;100.00;100194.16;5030984;28;20037;-63
2023/07/01 02:51:22;;;;;;;11.00;7.28;;;;;;;13.43;100.00;100196.84;5030793;28;20050;-63
2023/07/01 02:53:48;;;;;;;7.70;6.80;;;;;;;13.44;100.00;100189.59;5030735;28;20152;-63
2023/07/01 02:56:14;;;;;;;9.25;7.28;;;;;;;13.45;100.00;100185.84;5030744;28;20476;-62
2023/07/01 02:58:41;;;;;;;10.60;7.68;;;;;;;13.43;100.00;100188.75;5030292;28;20087;-62
2023/07/01 03:01:08;;;;;;;10.55;7.63;;;;;;;13.40;100.00;100182.91;5030332;28;20041;-63
2023/07/01 03:03:34;;;;;;;8.68;7.75;;;;;;;13.42;100.00;100186.25;5030671;28;20125;-62
2023/07/01 03:06:02;;;;;;;10.00;7.20;;;;;;;13.39;100.00;100181.22;5030386;28;20049;-64
2023/07/01 03:08:28;;;;;;;10.65;7.60;;;;;;;13.39;100.00;100175.84;5030747;28;20096;-63
2023/07/01 03:10:55;;;;;;;14.52;8.15;;;;;;;13.41;100.00;100179.19;5030534;28;20041;-63
2023/07/01 03:13:21;;;;;;;11.85;7.65;;;;;;;13.35;100.00;100176.25;5030547;28;20111;-63
2023/07/01 03:15:48;;;;;;;10.45;8.10;;;;;;;13.30;100.00;100167.06;5030402;28;20057;-63
2023/07/01 03:18:14;;;;;;;13.45;8.68;;;;;;;13.24;100.00;100165.13;5030079;28;20468;-63
2023/07/01 03:20:41;;;;;;;14.60;8.48;;;;;;;13.24;100.00;100163.25;5030137;28;20057;-63
2023/07/01 03:23:08;;;;;;;16.50;8.65;;;;;;;13.24;100.00;100163.25;5030112;28;20045;-62
2023/07/01 03:25:35;;;;;;;12.68;8.45;;;;;;;13.22;100.00;100159.94;5030546;28;20413;-62
2023/07/01 03:28:02;;;;;;;14.43;8.95;;;;;;;13.21;100.00;100160.94;5030166;28;20544;-62
2023/07/01 03:30:30;;;;;;;10.23;8.48;;;;;;;13.19;100.00;100159.50;5030749;28;20057;-62
2023/07/01 03:32:57;;;;;;;12.18;8.32;;;;;;;13.17;100.00;100156.97;5033950;28;20042;-62
2023/07/01 03:35:24;;;;;;;10.98;8.77;;;;;;;13.07;100.00;100161.84;5030445;28;20041;-62
2023/07/01 03:37:50;;;;;;;12.32;9.18;;;;;;;13.12;100.00;100164.81;5029998;28;20057;-62
2023/07/01 03:40:17;;;;;;;13.68;8.68;;;;;;;13.09;100.00;100165.19;5030091;28;20045;-63
2023/07/01 03:42:43;;;;;;;11.70;8.90;;;;;;;13.09;100.00;100165.19;5030305;28;20045;-63
2023/07/01 03:45:11;;;;;;;15.90;8.52;;;;;;;13.08;100.00;100169.75;5030168;28;20061;-63
2023/07/01 03:47:42;;;;;;;10.73;9.00;;;;;;;13.12;100.00;100159.41;5030286;28;20065;-63
2023/07/01 03:50:10;;;;;;;9.57;8.52;;;;;;;13.11;100.00;100163.13;5029981;28;20068;-62
2023/07/01 03:52:37;;;;;;;12.30;8.27;;;;;;;13.17;100.00;100158.84;5030082;28;20049;-62
2023/07/01 03:55:08;;;;;;;16.23;8.60;;;;;;;13.21;100.00;100170.91;5030194;28;20046;-63
2023/07/01 03:57:35;;;;;;;10.05;8.80;;;;;;;13.29;100.00;100160.84;5029908;28;20115;-63
2023/07/01 04:00:08;;;;;;;12.68;8.57;;;;;;;13.31;100.00;100164.16;5030874;28;20048;-63
2023/07/01 04:02:37;;;;;;;12.30;8.45;;;;;;;13.37;100.00;100167.13;5033472;28;20042;-63
2023/07/01 04:05:10;;;;;;;14.80;8.98;;;;;;;13.37;100.00;100172.53;5033087;28;20120;-63
2023/07/01 04:07:39;;;;;;;12.70;8.88;;;;;;;13.37;100.00;100167.97;5033384;28;20077;-63
2023/07/01 04:10:06;;;;;;;13.70;9.02;;;;;;;13.37;100.00;100165.28;5037296;28;20119;-62
2023/07/01 04:12:34;;;;;;;9.73;8.73;;;;;;;13.47;100.00;100167.66;5033309;28;20045;-63
2023/07/01 04:15:02;;;;;;;10.02;7.85;;;;;;;13.57;100.00;100165.47;5033036;28;20099;-63
2023/07/01 04:17:29;;;;;;;15.27;9.27;;;;;;;13.58;100.00;100170.66;5033635;28;20448;-63
2023/07/01 04:19:56;;;;;;;11.85;7.72;;;;;;;13.72;100.00;100163.50;5033249;28;20050;-63
2023/07/01 04:22:23;;;;;;;10.38;7.28;;;;;;;13.73;100.00;100162.47;5033231;28;20095;-63
2023/07/01 04:24:50;;;;;;;11.73;7.00;;;;;;;13.71;100.00;100164.56;5033006;28;20072;-63
2023/07/01 04:27:16;;;;;;;14.18;8.13;;;;;;;13.69;100.00;100155.81;5033332;28;20041;-62
2023/07/01 04:29:43;;;;;;;11.52;7.45;;;;;;;13.71;100.00;100161.03;5032864;28;20079;-63
2023/07/01 04:32:09;;;;;;;13.10;7.68;;;;;;;13.69;100.00;100158.50;5032732;28;20046;-63
2023/07/01 04:34:36;;;;;;;11.25;7.72;;;;;;;13.75;100.00;100152.34;5032997;28;20069;-62
2023/07/01 04:37:03;;;;;;;9.63;7.07;;;;;;;13.72;100.00;100152.72;5032931;28;20048;-62
2023/07/01 04:39:29;;;;;;;16.55;7.85;;;;;;;13.71;100.00;100153.75;5033235;28;20133;-64
2023/07/01 04:41:56;;;;;;;20.08;8.27;;;;;;;13.76;100.00;100150.50;5032999;28;20478;-62
2023/07/01 04:44:25;;;;;;;10.23;7.13;;;;;;;13.78;100.00;100154.69;5032788;28;20083;-63
2023/07/01 04:46:51;;;;;;;13.00;7.43;;;;;;;13.86;100.00;100147.47;5032970;28;20092;-63
2023/07/01 04:49:18;;;;;;;12.88;7.55;;;;;;;13.83;100.00;100144.13;5032984;28;20548;-63
2023/07/01 04:51:45;;;;;;;14.80;7.40;;;;;;;13.88;100.00;100142.75;5032877;28;20095;-63
2023/07/01 04:54:11;;;;;;;10.18;7.38;;;;;;;13.84;100.00;100145.00;5032430;28;20045;-62
2023/07/01 04:56:38;;;;;;;9.18;6.70;;;;;;;13.82;100.00;100138.94;5032260;28;20054;-62
2023/07/01 04:59:04;;;;;;;13.75;7.30;;;;;;;13.78;100.00;100141.19;5032074;28;20046;-63
2023/07/01 05:01:31;;;;;;;12.05;7.93;;;;;;;13.79;100.00;100150.94;5032514;28;20148;-63
2023/07/01 05:03:57;;;;;;;15.50;7.03;;;;;;;13.78;100.00;100141.19;5032536;28;20498;-62
2023/07/01 05:06:24;;;;;;;11.70;7.60;;;;;;;13.74;100.00;100147.16;5032272;28;20072;-64
2023/07/01 05:08:51;;;;;;;11.82;7.78;;;;;;;13.74;100.00;100139.91;5032411;28;20060;-63
2023/07/01 05:11:18;;;;;;;14.38;7.30;;;;;;;13.75;100.00;100138.88;5031472;28;20489;-63
2023/07/01 05:13:45;;;;;;;10.40;6.75;;;;;;;13.80;100.00;100152.63;5032183;28;20501;-63
2023/07/01 05:16:12;;;;;;;7.57;6.88;;;;;;;13.86;100.00;100132.13;5032226;28;20103;-62
2023/07/01 05:18:38;;;;;;;14.98;7.80;;;;;;;13.90;100.00;100141.50;5031997;28;20049;-64
2023/07/01 05:21:05;;;;;;;10.63;7.18;;;;;;;13.93;100.00;100140.28;5031899;28;20056;-62
2023/07/01 05:23:32;;;;;;;12.18;6.57;;;;;;;13.90;100.00;100146.06;5032112;28;20429;-63
2023/07/01 05:25:58;;;;;;;10.93;6.60;;;;;;;14.05;100.00;100138.72;5032490;28;20045;-62
2023/07/01 05:28:25;;;;;;;10.60;6.57;;;;;;;13.99;100.00;100139.50;5032092;28;20438;-63
2023/07/01 05:30:52;;;;;;;9.00;6.25;;;;;;;14.02;100.00;100139.94;5031990;28;20049;-63
2023/07/01 05:33:18;;;;;;;7.93;5.75;;;;;;;14.03;100.00;100146.16;5032058;28;20069;-62
2023/07/01 05:35:45;;;;;;;11.60;6.22;;;;;;;14.11;100.00;100147.84;5032091;28;20049;-62
2023/07/01 05:38:13;;;;;;;9.57;5.88;;;;;;;14.15;100.00;100144.59;5031923;28;20045;-62
2023/07/01 05:40:39;;;;;;;8.35;5.55;;;;;;;14.12;100.00;100136.88;5031874;28;20057;-62
2023/07/01 05:43:06;;;;;;;11.93;5.43;;;;;;;14.22;100.00;100144.59;5031747;28;20099;-63
2023/07/01 05:45:32;;;;;;;9.98;5.72;;;;;;;14.16;100.00;100145.41;5031782;28;20053;-63
2023/07/01 05:47:59;;;;;;;6.90;4.97;;;;;;;14.22;100.00;100144.59;5031948;28;20114;-62
2023/07/01 05:50:26;;;;;;;10.15;5.40;;;;;;;14.34;100.00;100140.31;5031694;28;20190;-62
2023/07/01 05:52:52;;;;;;;12.18;5.65;;;;;;;14.39;100.00;100142.41;5031401;28;20053;-62
2023/07/01 05:55:19;;;;;;;10.10;5.00;;;;;;;14.46;100.00;100138.75;5030340;28;20045;-62
2023/07/01 05:57:46;;;;;;;6.80;4.95;;;;;;;14.50;100.00;100133.78;5031526;28;20667;-62
2023/07/01 06:00:13;;;;;;;9.20;5.03;;;;;;;14.57;100.00;100131.13;5031192;28;20459;-64
2023/07/01 06:02:40;;;;;;;15.02;4.78;;;;;;;14.60;100.00;100142.34;5030011;28;20103;-63
2023/07/01 06:05:10;;;;;;;7.60;4.38;;;;;;;14.69;100.00;100143.81;5029681;28;20049;-64
2023/07/01 06:07:37;;;;;;;12.35;4.60;;;;;;;14.67;100.00;100137.81;5030725;28;20046;-62
2023/07/01 06:10:04;;;;;;;13.00;4.72;;;;;;;14.72;100.00;100138.06;5030331;28;20049;-62
2023/07/01 06:12:30;;;;;;;10.65;4.78;;;;;;;14.81;100.00;100140.56;5030658;28;20049;-62
2023/07/01 06:14:57;;;;;;;8.60;4.53;;;;;;;14.79;100.00;100139.94;5030920;28;20088;-62
2023/07/01 06:17:23;;;;;;;8.63;4.35;;;;;;;14.89;100.00;100145.81;5030521;28;20049;-63
2023/07/01 06:19:50;;;;;;;10.98;4.25;;;;;;;14.87;100.00;100139.75;5030729;28;20128;-62
2023/07/01 06:22:16;;;;;;;8.85;5.68;;;;;;;14.96;100.00;100141.25;5030115;28;20045;-61
2023/07/01 06:24:43;;;;;;;11.27;4.80;;;;;;;14.92;100.00;100135.44;5030081;28;20083;-64
2023/07/01 06:27:09;;;;;;;8.88;4.15;;;;;;;15.05;100.00;100134.63;5030486;28;20063;-62
2023/07/01 06:29:36;;;;;;;11.65;5.10;;;;;;;15.22;100.00;100133.22;5030028;28;20111;-62
2023/07/01 06:32:03;;;;;;;11.35;4.50;;;;;;;15.30;100.00;100136.78;5029925;28;20076;-62
2023/07/01 06:34:29;;;;;;;8.13;3.60;;;;;;;15.30;100.00;100134.91;5030716;28;20469;-63
2023/07/01 06:36:56;;;;;;;7.03;4.05;;;;;;;15.37;100.00;100134.91;5030286;28;20096;-62
2023/07/01 06:39:22;;;;;;;16.17;4.40;;;;;;;15.45;100.00;100134.69;5030081;28;20046;-62
2023/07/01 06:41:49;;;;;;;9.57;3.88;;;;;;;15.54;100.00;100128.06;5030289;28;20053;-62
2023/07/01 06:44:15;;;;;;;7.07;3.92;;;;;;;15.71;100.00;100136.63;5030632;28;20459;-62
2023/07/01 06:46:42;;;;;;;5.20;3.28;;;;;;;15.78;100.00;100126.63;5030389;28;20417;-64
2023/07/01 06:49:09;;;;;;;7.28;3.30;;;;;;;15.97;100.00;100133.06;5030302;28;20041;-64
2023/07/01 06:51:35;;;;;;;7.40;3.03;;;;;;;15.97;100.00;100122.22;5031661;28;20501;-63
2023/07/01 06:54:02;;;;;;;5.95;2.80;;;;;;;16.17;100.00;100130.31;5030161;28;20042;-63
2023/07/01 06:56:28;;;;;;;12.18;2.83;;;;;;;16.32;100.00;100135.47;5030656;28;20045;-62
2023/07/01 06:58:55;;;;;;;5.93;2.42;;;;;;;16.40;100.00;100121.69;5029860;28;20465;-62
2023/07/01 07:01:21;;;;;;;9.40;2.83;;;;;;;16.56;100.00;100132.09;5030372;28;20091;-63
2023/07/01 07:03:48;;;;;;;5.88;2.70;;;;;;;16.65;100.00;100127.28;5030557;28;20087;-63
2023/07/01 07:06:15;;;;;;;4.30;2.33;;;;;;;16.66;100.00;100118.94;5030515;28;20468;-63
2023/07/01 07:08:41;;;;;;;6.70;2.17;;;;;;;16.70;100.00;100115.81;5030361;28;20513;-62
2023/07/01 07:11:08;;;;;;;9.50;2.22;;;;;;;16.71;100.00;100109.34;5029751;28;20559;-62
2023/07/01 07:13:34;;;;;;;4.75;1.80;;;;;;;17.22;100.00;100109.25;5030315;28;20049;-62
2023/07/01 07:16:01;;;;;;;5.10;1.98;;;;;;;17.18;100.00;100112.63;5030369;28;20095;-62
2023/07/01 07:18:28;;;;;;;6.90;2.10;;;;;;;17.58;100.00;100116.75;5030513;28;20480;-63
2023/07/01 07:20:54;;;;;;;11.10;2.55;;;;;;;17.92;95.98;100105.56;5029861;28;20111;-62
2023/07/01 07:23:21;;;;;;;7.88;2.20;;;;;;;18.24;99.09;100103.63;5029969;28;20406;-62
2023/07/01 07:25:48;;;;;;;4.03;2.25;;;;;;;18.81;98.37;100096.00;5030031;28;20079;-63
2023/07/01 07:28:16;;;;;;;5.95;1.90;;;;;;;19.12;79.33;100097.69;5029950;28;20414;-62
2023/07/01 07:30:43;;;;;;;6.93;1.88;;;;;;;19.34;74.55;100091.72;5029979;28;20076;-62
2023/07/01 07:33:09;;;;;;;5.47;1.70;;;;;;;19.82;70.68;100096.16;5030026;28;20041;-63
2023/07/01 07:35:36;;;;;;;4.15;1.80;;;;;;;20.27;66.46;100100.97;5032264;28;20049;-62
2023/07/01 07:38:05;;;;;;;4.43;1.90;;;;;;;20.61;61.04;100099.28;5034133;28;20049;-62
2023/07/01 07:40:32;;;;;;;3.92;1.60;;;;;;;20.79;58.12;100082.72;5034393;28;20049;-62
2023/07/01 07:43:08;;;;;;;7.57;1.80;;;;;;;20.86;58.00;100080.69;5034385;28;20053;-62
2023/07/01 07:45:34;;;;;;;5.68;1.92;;;;;;;20.89;56.88;100071.19;5033761;28;20099;-62
2023/07/01 07:48:01;;;;;;;6.82;1.63;;;;;;;20.70;58.23;100076.03;5033888;28;20045;-62
2023/07/01 07:50:28;;;;;;;3.80;1.55;;;;;;;20.85;51.65;100075.47;5034103;28;20563;-61
2023/07/01 07:52:54;;;;;;;2.90;1.15;;;;;;;21.11;49.20;100080.38;5034028;28;20049;-63
2023/07/01 07:55:21;;;;;;;6.57;1.50;;;;;;;21.58;47.67;100071.88;5034173;28;20052;-62
2023/07/01 07:57:48;;;;;;;5.60;1.60;;;;;;;21.72;47.10;100076.97;5033306;28;20049;-62
2023/07/01 08:00:15;;;;;;;2.72;1.42;;;;;;;22.11;46.64;100066.91;5033656;28;20044;-63
2023/07/01 08:02:44;;;;;;;5.15;1.40;;;;;;;22.32;49.95;100076.19;5033625;28;20417;-64
2023/07/01 08:05:15;;;;;;;10.20;1.75;;;;;;;22.30;46.23;100062.81;5033797;28;20050;-62
2023/07/01 08:07:43;;;;;;;9.70;1.95;;;;;;;22.63;47.55;100061.03;5034547;28;20046;-64
2023/07/01 08:10:10;;;;;;;3.45;1.60;;;;;;;22.59;43.76;100059.88;5033329;28;20507;-63
2023/07/01 08:12:36;;;;;;;7.80;1.55;;;;;;;22.45;43.53;100064.88;5033204;28;20080;-63
2023/07/01 08:15:03;;;;;;;4.32;1.80;;;;;;;22.48;44.45;100058.13;5033111;28;20519;-63
2023/07/01 08:17:32;;;;;;;5.90;1.73;;;;;;;22.75;43.62;100052.69;5033131;28;20056;-60
2023/07/01 08:19:58;;;;;;;7.55;1.52;;;;;;;22.70;43.00;100047.97;5033808;28;20049;-63
2023/07/01 08:22:25;;;;;;;5.40;1.83;;;;;;;23.10;43.25;100038.53;5033997;28;20041;-62
2023/07/01 08:24:51;;;;;;;4.30;1.63;;;;;;;22.91;42.92;100040.81;5033334;28;20053;-61
2023/07/01 08:27:18;;;;;;;3.85;1.70;;;;;;;23.22;44.04;100046.59;5032081;28;20100;-62
2023/07/01 08:29:44;;;;;;;7.78;1.45;;;;;;;23.11;42.25;100042.91;5033235;28;20095;-62
2023/07/01 08:32:11;;;;;;;6.07;1.65;;;;;;;23.34;43.06;100039.03;5033352;28;20104;-62
2023/07/01 08:34:37;;;;;;;6.93;1.88;;;;;;;23.50;42.94;100039.97;5033097;28;20045;-63
2023/07/01 08:37:04;;;;;;;4.95;1.50;;;;;;;23.65;43.76;100034.59;5032756;28;20100;-62
2023/07/01 08:39:31;;;;;;;5.63;1.60;;;;;;;24.04;41.36;100039.78;5033857;28;20382;-63
2023/07/01 08:42:03;;;;;;;19.38;3.00;;;;;;;24.02;52.49;100028.25;5033437;28;20045;-61
2023/07/01 08:44:30;;;;;;;4.22;1.48;;;;;;;23.92;42.07;100031.78;5035416;28;20091;-61
2023/07/01 08:46:57;;;;;;;7.05;1.65;;;;;;;24.00;40.00;100027.72;5032943;28;20048;-64
2023/07/01 08:49:27;;;;;;;4.65;1.52;;;;;;;24.03;39.84;100024.44;5032880;28;20076;-62
2023/07/01 08:52:08;;;;;;;8.25;1.90;;;;;;;24.54;42.01;100013.69;5032856;28;20045;-61
2023/07/01 08:54:36;;;;;;;5.80;1.75;;;;;;;24.63;40.33;100017.53;5032938;28;20045;-63
2023/07/01 08:57:03;;;;;;;11.90;2.30;;;;;;;24.83;40.16;100015.94;5033048;28;20480;-63
2023/07/01 08:59:30;;;;;;;10.55;1.92;;;;;;;24.56;38.62;100011.50;5033016;28;20053;-63
2023/07/01 09:01:59;;;;;;;9.40;1.90;;;;;;;24.44;40.82;100013.69;5033076;28;20041;-62
2023/07/01 09:04:27;;;;;;;4.40;1.65;;;;;;;24.82;37.67;100008.78;5032678;28;20129;-62
2023/07/01 09:06:54;;;;;;;4.60;2.03;;;;;;;25.04;38.11;100011.31;5032634;28;20223;-62
2023/07/01 09:09:20;;;;;;;5.05;2.10;;;;;;;25.14;39.98;100000.34;5032439;28;20096;-62
2023/07/01 09:11:47;;;;;;;8.25;1.92;;;;;;;25.20;40.24;99993.75;5032425;28;20340;-62
2023/07/01 09:14:14;;;;;;;7.05;1.67;;;;;;;25.81;39.98;99995.59;5032511;28;20049;-62
2023/07/01 09:16:40;;;;;;;7.43;2.10;;;;;;;25.30;37.85;99998.41;5032089;28;20050;-63
2023/07/01 09:19:10;;;;;;;3.40;1.45;;;;;;;25.74;39.71;99997.81;5032078;28;20111;-62
2023/07/01 09:21:38;;;;;;;5.85;1.58;;;;;;;25.71;40.34;99993.69;5031997;28;20053;-63
2023/07/01 09:24:06;;;;;;;4.28;1.85;;;;;;;25.91;36.74;99992.00;5032211;28;20048;-62
2023/07/01 09:26:33;;;;;;;4.97;1.67;;;;;;;26.74;35.93;99983.06;5032016;28;20049;-62
2023/07/01 09:29:08;;;;;;;12.27;1.65;;;;;;;26.49;33.98;99986.81;5032557;28;20092;-62
2023/07/01 09:31:48;;;;;;;4.95;1.90;;;;;;;25.99;35.77;99981.22;5031815;28;20041;-63
2023/07/01 09:34:16;;;;;;;6.78;1.75;;;;;;;26.26;35.38;99980.03;5032091;28;20064;-63
2023/07/01 09:36:44;;;;;;;6.85;1.90;;;;;;;26.68;35.48;99963.00;5032041;28;20107;-62
2023/07/01 09:39:11;;;;;;;4.07;1.85;;;;;;;26.32;36.43;99954.16;5032185;28;20049;-62
2023/07/01 09:41:37;;;;;;;4.47;1.67;;;;;;;26.62;34.77;99947.66;5030266;28;20548;-62
2023/07/01 09:44:18;;;;;;;4.75;1.98;;;;;;;26.29;35.48;99949.22;5031798;28;20050;-62
2023/07/01 09:46:50;;;;;;;5.18;2.17;;;;;;;26.33;34.79;99950.31;5031327;28;20053;-63
2023/07/01 09:49:18;;;;;;;8.82;2.03;;;;;;;26.37;34.70;99945.88;5031545;28;20128;-62
2023/07/01 09:51:50;;;;;;;8.13;1.65;;;;;;;26.98;33.98;99948.22;5031269;28;20056;-61
2023/07/01 09:54:24;;;;;;;3.90;1.85;;;;;;;27.43;34.52;99939.81;5031571;28;20072;-62
2023/07/01 09:56:53;;;;;;;8.43;1.95;;;;;;;27.03;33.68;99948.16;5031319;28;20049;-63
2023/07/01 09:59:20;;;;;;;9.40;2.25;;;;;;;27.12;33.42;99951.13;5030751;28;20045;-62
2023/07/01 10:01:50;;;;;;;5.20;1.52;;;;;;;26.59;34.36;99937.22;5031505;28;20106;-62
2023/07/01 10:04:18;;;;;;;6.35;1.70;;;;;;;26.06;36.10;99934.19;5031434;28;20115;-63
2023/07/01 10:06:45;;;;;;;5.43;1.60;;;;;;;26.06;36.21;99932.28;5031250;28;20053;-62
2023/07/01 10:09:12;;;;;;;6.40;1.83;;;;;;;26.78;36.41;99929.13;5031479;28;20469;-63
2023/07/01 10:11:39;;;;;;;6.32;2.13;;;;;;;26.92;35.38;99927.34;5030023;28;20068;-63
2023/07/01 10:14:07;;;;;;;6.40;1.70;;;;;;;27.26;33.67;99923.72;5031135;28;20049;-62
2023/07/01 10:16:44;;;;;;;6.95;1.77;;;;;;;27.18;35.06;99910.59;5031330;28;20037;-61
2023/07/01 10:19:27;;;;;;;6.65;1.80;;;;;;;26.24;34.47;99913.50;5030906;28;20523;-63
2023/07/01 10:22:20;;;;;;;8.27;2.05;;;;;;;26.81;33.83;99917.53;5030913;28;20049;-63
2023/07/01 10:24:55;;;;;;;4.70;1.70;;;;;;;26.92;33.92;99918.25;5030817;28;20095;-62
2023/07/01 10:27:40;;;;;;;5.93;2.00;;;;;;;26.55;34.87;99905.88;5031173;28;20049;-62
2023/07/01 10:30:11;;;;;;;4.85;1.77;;;;;;;27.12;35.38;99900.75;5030910;28;20042;-62
2023/07/01 10:32:38;;;;;;;4.80;1.80;;;;;;;26.97;35.89;99893.47;5030761;28;20072;-62
2023/07/01 10:35:05;;;;;;;4.90;2.13;;;;;;;27.25;33.77;99889.03;5029649;28;20180;-62
2023/07/01 10:37:33;;;;;;;10.48;2.22;;;;;;;27.25;33.52;99881.59;5031549;28;20050;-63
2023/07/01 10:40:07;;;;;;;6.85;2.05;;;;;;;26.93;34.58;99871.19;5030721;28;20041;-63
2023/07/01 10:42:36;;;;;;;6.32;2.17;;;;;;;26.30;35.79;99871.94;5030358;28;20548;-63
2023/07/01 10:45:12;;;;;;;9.65;2.30;;;;;;;25.40;36.97;99872.09;5031021;28;20045;-62
2023/07/01 10:47:44;;;;;;;6.03;2.30;;;;;;;26.55;35.66;99868.19;5030834;28;20263;-62
2023/07/01 10:50:12;;;;;;;3.60;1.98;;;;;;;25.13;36.70;99858.72;5030862;28;20045;-62
2023/07/01 10:53:04;;;;;;;7.95;2.30;;;;;;;26.25;35.90;99873.94;5030708;28;20053;-63
2023/07/01 10:55:44;;;;;;;;;;;;;;;26.77;35.23;99861.44;5030746;28;20443;-63
2023/07/01 10:58:23;;;;;;;5.63;1.70;;;;;;;25.86;36.37;99852.72;5030288;28;20443;-62
2023/07/01 11:00:57;;;;;;;6.10;1.98;;;;;;;24.85;38.35;99851.88;5030474;28;20060;-63
2023/07/01 11:03:33;;;;;;;9.75;2.20;;;;;;;24.34;39.12;99860.09;5030761;28;20046;-62
2023/07/01 11:06:01;;;;;;;5.25;1.90;;;;;;;23.52;41.13;99859.84;5030795;28;20045;-61
2023/07/01 11:08:29;;;;;;;12.38;2.00;;;;;;;23.27;42.15;99850.44;5030892;28;20516;-62
2023/07/01 11:10:56;;;;;;;4.68;2.00;;;;;;;22.75;43.24;99844.88;5032932;28;20501;-62
2023/07/01 11:13:23;;;;;;;7.90;2.17;;;;;;;23.47;43.46;99848.91;5034921;28;20072;-64
2023/07/01 11:16:03;;;;;;;5.40;2.20;;;;;;;23.53;43.21;99847.81;5034314;28;20105;-63
2023/07/01 11:18:50;;;;;;;6.30;2.10;;;;;;;23.26;44.61;99826.91;5034717;28;20056;-62
2023/07/01 11:21:25;;;;;;;12.43;2.42;;;;;;;23.58;43.96;99836.06;5034205;28;20048;-62
2023/07/01 11:24:05;;;;;;;9.07;1.95;;;;;;;23.77;43.19;99836.41;5033867;28;20453;-61